sensor_id;sensor_type;location;lat;lon;timestamp;P1;durP1;ratioP1;P2;durP2;ratioP2
39140;SDS011;24875;48.436;10.298;2023-07-13T00:01:36;4.85;;;1.35;;
39140;SDS011;24875;48.436;10.298;2023-07-13T00:04:03;3.30;;;1.67;;
39140;SDS011;24875;48.436;10.298;2023-07-13T00:06:30;2.08;;;1.42;;
39140;SDS011;24875;48.436;10.298;2023-07-13T00:08:58;4.32;;;1.83;;
39140;SDS011;24875;48.436;10.298;2023-07-13T00:11:25;4.30;;;1.83;;
39140;SDS011;24875;48.436;10.298;2023-07-13T00:13:52;2.70;;;1.27;;
39140;SDS011;24875;48.436;10.298;2023-07-13T00:16:19;4.20;;;2.13;;
39140;SDS011;24875;48.436;10.298;2023-07-13T00:18:45;3.85;;;2.10;;
39140;SDS011;24875;48.436;10.298;2023-07-13T00:21:12;2.75;;;1.35;;
39140;SDS011;24875;48.436;10.298;2023-07-13T00:23:39;2.90;;;1.77;;
39140;SDS011;24875;48.436;10.298;2023-07-13T00:26:08;5.32;;;2.08;;
39140;SDS011;24875;48.436;10.298;2023-07-13T00:28:37;2.97;;;1.92;;
39140;SDS011;24875;48.436;10.298;2023-07-13T00:31:04;5.63;;;2.05;;
39140;SDS011;24875;48.436;10.298;2023-07-13T00:33:31;3.72;;;2.30;;
39140;SDS011;24875;48.436;10.298;2023-07-13T00:35:58;2.97;;;1.80;;
39140;SDS011;24875;48.436;10.298;2023-07-13T00:38:24;4.78;;;2.05;;
39140;SDS011;24875;48.436;10.298;2023-07-13T00:40:51;3.47;;;1.85;;
39140;SDS011;24875;48.436;10.298;2023-07-13T00:43:18;6.57;;;2.63;;
39140;SDS011;24875;48.436;10.298;2023-07-13T00:48:44;4.03;;;2.15;;
39140;SDS011;24875;48.436;10.298;2023-07-13T00:51:14;3.72;;;1.92;;
39140;SDS011;24875;48.436;10.298;2023-07-13T00:53:44;3.63;;;2.38;;
39140;SDS011;24875;48.436;10.298;2023-07-13T00:56:11;4.28;;;1.95;;
39140;SDS011;24875;48.436;10.298;2023-07-13T00:58:38;6.20;;;2.60;;
39140;SDS011;24875;48.436;10.298;2023-07-13T01:01:05;5.47;;;2.65;;
39140;SDS011;24875;48.436;10.298;2023-07-13T01:03:33;5.28;;;2.92;;
39140;SDS011;24875;48.436;10.298;2023-07-13T01:06:01;6.15;;;3.15;;
39140;SDS011;24875;48.436;10.298;2023-07-13T01:08:26;10.80;;;3.15;;
39140;SDS011;24875;48.436;10.298;2023-07-13T01:10:54;7.40;;;3.00;;
39140;SDS011;24875;48.436;10.298;2023-07-13T01:13:21;8.48;;;3.03;;
39140;SDS011;24875;48.436;10.298;2023-07-13T01:15:49;7.80;;;3.63;;
39140;SDS011;24875;48.436;10.298;2023-07-13T01:18:19;3.78;;;2.40;;
39140;SDS011;24875;48.436;10.298;2023-07-13T01:20:54;6.03;;;2.15;;
39140;SDS011;24875;48.436;10.298;2023-07-13T01:23:21;4.68;;;2.80;;
39140;SDS011;24875;48.436;10.298;2023-07-13T01:25:49;4.30;;;2.67;;
39140;SDS011;24875;48.436;10.298;2023-07-13T01:28:15;6.32;;;2.72;;
39140;SDS011;24875;48.436;10.298;2023-07-13T01:30:43;4.80;;;2.30;;
39140;SDS011;24875;48.436;10.298;2023-07-13T01:33:11;12.75;;;3.40;;
39140;SDS011;24875;48.436;10.298;2023-07-13T01:35:39;9.63;;;2.58;;
39140;SDS011;24875;48.436;10.298;2023-07-13T01:38:07;4.97;;;2.63;;
39140;SDS011;24875;48.436;10.298;2023-07-13T01:40:34;6.80;;;2.55;;
39140;SDS011;24875;48.436;10.298;2023-07-13T01:43:03;4.93;;;1.83;;
39140;SDS011;24875;48.436;10.298;2023-07-13T01:45:31;2.15;;;1.67;;
39140;SDS011;24875;48.436;10.298;2023-07-13T01:47:58;3.80;;;2.22;;
39140;SDS011;24875;48.436;10.298;2023-07-13T01:50:24;4.78;;;2.55;;
39140;SDS011;24875;48.436;10.298;2023-07-13T01:52:51;6.03;;;2.03;;
39140;SDS011;24875;48.436;10.298;2023-07-13T01:55:19;2.90;;;1.98;;
39140;SDS011;24875;48.436;10.298;2023-07-13T01:57:46;13.57;;;2.45;;
39140;SDS011;24875;48.436;10.298;2023-07-13T02:00:13;3.83;;;2.15;;
39140;SDS011;24875;48.436;10.298;2023-07-13T02:02:40;4.05;;;2.22;;
39140;SDS011;24875;48.436;10.298;2023-07-13T02:05:07;3.47;;;1.90;;
39140;SDS011;24875;48.436;10.298;2023-07-13T02:07:34;2.53;;;1.73;;
39140;SDS011;24875;48.436;10.298;2023-07-13T02:10:00;5.85;;;1.77;;
39140;SDS011;24875;48.436;10.298;2023-07-13T02:12:28;7.03;;;2.15;;
39140;SDS011;24875;48.436;10.298;2023-07-13T02:14:55;3.58;;;1.85;;
39140;SDS011;24875;48.436;10.298;2023-07-13T02:17:21;3.88;;;2.20;;
39140;SDS011;24875;48.436;10.298;2023-07-13T02:19:48;3.13;;;1.70;;
39140;SDS011;24875;48.436;10.298;2023-07-13T02:22:14;4.35;;;2.38;;
39140;SDS011;24875;48.436;10.298;2023-07-13T02:24:41;3.15;;;1.77;;
39140;SDS011;24875;48.436;10.298;2023-07-13T02:27:07;2.78;;;1.67;;
39140;SDS011;24875;48.436;10.298;2023-07-13T02:29:35;6.20;;;1.83;;
39140;SDS011;24875;48.436;10.298;2023-07-13T02:32:01;3.38;;;1.73;;
39140;SDS011;24875;48.436;10.298;2023-07-13T02:34:28;3.40;;;2.20;;
39140;SDS011;24875;48.436;10.298;2023-07-13T02:36:55;2.90;;;1.50;;
39140;SDS011;24875;48.436;10.298;2023-07-13T02:39:21;5.88;;;1.98;;
39140;SDS011;24875;48.436;10.298;2023-07-13T02:41:48;2.50;;;1.50;;
39140;SDS011;24875;48.436;10.298;2023-07-13T02:44:14;2.20;;;1.48;;
39140;SDS011;24875;48.436;10.298;2023-07-13T02:46:42;3.15;;;1.30;;
39140;SDS011;24875;48.436;10.298;2023-07-13T02:49:09;2.88;;;1.20;;
39140;SDS011;24875;48.436;10.298;2023-07-13T02:51:36;8.93;;;1.30;;
39140;SDS011;24875;48.436;10.298;2023-07-13T02:54:03;4.50;;;1.50;;
39140;SDS011;24875;48.436;10.298;2023-07-13T02:56:30;3.13;;;1.67;;
39140;SDS011;24875;48.436;10.298;2023-07-13T02:58:58;8.23;;;1.40;;
39140;SDS011;24875;48.436;10.298;2023-07-13T03:01:24;1.20;;;1.02;;
39140;SDS011;24875;48.436;10.298;2023-07-13T03:03:52;1.88;;;1.25;;
39140;SDS011;24875;48.436;10.298;2023-07-13T03:06:19;2.83;;;1.20;;
39140;SDS011;24875;48.436;10.298;2023-07-13T03:08:46;10.70;;;1.20;;
39140;SDS011;24875;48.436;10.298;2023-07-13T03:11:14;2.35;;;1.25;;
39140;SDS011;24875;48.436;10.298;2023-07-13T03:13:42;2.30;;;1.25;;
39140;SDS011;24875;48.436;10.298;2023-07-13T03:16:09;2.15;;;1.23;;
39140;SDS011;24875;48.436;10.298;2023-07-13T03:18:37;2.42;;;1.10;;
39140;SDS011;24875;48.436;10.298;2023-07-13T03:21:05;2.35;;;1.13;;
39140;SDS011;24875;48.436;10.298;2023-07-13T03:23:32;2.17;;;1.40;;
39140;SDS011;24875;48.436;10.298;2023-07-13T03:26:03;3.55;;;1.40;;
39140;SDS011;24875;48.436;10.298;2023-07-13T03:28:32;2.80;;;1.65;;
39140;SDS011;24875;48.436;10.298;2023-07-13T03:30:59;2.17;;;1.48;;
39140;SDS011;24875;48.436;10.298;2023-07-13T03:33:26;4.60;;;1.80;;
39140;SDS011;24875;48.436;10.298;2023-07-13T03:35:52;2.78;;;1.70;;
39140;SDS011;24875;48.436;10.298;2023-07-13T03:38:20;2.00;;;1.20;;
39140;SDS011;24875;48.436;10.298;2023-07-13T03:40:47;2.30;;;1.50;;
39140;SDS011;24875;48.436;10.298;2023-07-13T03:43:14;2.15;;;1.17;;
39140;SDS011;24875;48.436;10.298;2023-07-13T03:45:40;6.20;;;1.73;;
39140;SDS011;24875;48.436;10.298;2023-07-13T03:48:07;3.72;;;1.52;;
39140;SDS011;24875;48.436;10.298;2023-07-13T03:50:33;2.92;;;1.45;;
39140;SDS011;24875;48.436;10.298;2023-07-13T03:53:00;3.63;;;1.77;;
39140;SDS011;24875;48.436;10.298;2023-07-13T03:55:28;3.00;;;1.50;;
39140;SDS011;24875;48.436;10.298;2023-07-13T03:57:57;3.15;;;1.58;;
39140;SDS011;24875;48.436;10.298;2023-07-13T04:00:25;2.20;;;1.23;;
39140;SDS011;24875;48.436;10.298;2023-07-13T04:02:52;2.20;;;1.15;;
39140;SDS011;24875;48.436;10.298;2023-07-13T04:05:18;3.05;;;1.58;;
39140;SDS011;24875;48.436;10.298;2023-07-13T04:07:45;4.53;;;1.83;;
39140;SDS011;24875;48.436;10.298;2023-07-13T04:10:11;3.05;;;1.33;;
39140;SDS011;24875;48.436;10.298;2023-07-13T04:12:39;1.45;;;1.10;;
39140;SDS011;24875;48.436;10.298;2023-07-13T04:15:06;1.88;;;1.20;;
39140;SDS011;24875;48.436;10.298;2023-07-13T04:17:33;3.40;;;1.30;;
39140;SDS011;24875;48.436;10.298;2023-07-13T04:20:00;2.40;;;1.30;;
39140;SDS011;24875;48.436;10.298;2023-07-13T04:22:27;1.42;;;0.93;;
39140;SDS011;24875;48.436;10.298;2023-07-13T04:24:53;3.00;;;1.27;;
39140;SDS011;24875;48.436;10.298;2023-07-13T04:27:20;1.88;;;1.17;;
39140;SDS011;24875;48.436;10.298;2023-07-13T04:29:47;1.80;;;0.95;;
39140;SDS011;24875;48.436;10.298;2023-07-13T04:32:14;2.13;;;1.15;;
39140;SDS011;24875;48.436;10.298;2023-07-13T04:34:40;1.75;;;1.15;;
39140;SDS011;24875;48.436;10.298;2023-07-13T04:37:07;1.27;;;0.80;;
39140;SDS011;24875;48.436;10.298;2023-07-13T04:39:33;1.20;;;1.10;;
39140;SDS011;24875;48.436;10.298;2023-07-13T04:42:00;1.20;;;0.98;;
39140;SDS011;24875;48.436;10.298;2023-07-13T04:44:26;3.40;;;1.42;;
39140;SDS011;24875;48.436;10.298;2023-07-13T04:46:54;1.08;;;0.90;;
39140;SDS011;24875;48.436;10.298;2023-07-13T04:49:20;4.38;;;1.88;;
39140;SDS011;24875;48.436;10.298;2023-07-13T04:51:47;1.23;;;1.00;;
39140;SDS011;24875;48.436;10.298;2023-07-13T04:54:13;2.38;;;1.52;;
39140;SDS011;24875;48.436;10.298;2023-07-13T04:56:40;2.63;;;1.63;;
39140;SDS011;24875;48.436;10.298;2023-07-13T04:59:06;4.88;;;1.48;;
39140;SDS011;24875;48.436;10.298;2023-07-13T05:01:33;2.30;;;1.60;;
39140;SDS011;24875;48.436;10.298;2023-07-13T05:04:01;3.53;;;1.20;;
39140;SDS011;24875;48.436;10.298;2023-07-13T05:06:27;2.28;;;1.33;;
39140;SDS011;24875;48.436;10.298;2023-07-13T05:08:55;4.38;;;1.20;;
39140;SDS011;24875;48.436;10.298;2023-07-13T05:11:22;2.03;;;1.10;;
39140;SDS011;24875;48.436;10.298;2023-07-13T05:13:48;1.70;;;1.20;;
39140;SDS011;24875;48.436;10.298;2023-07-13T05:16:15;2.38;;;1.52;;
39140;SDS011;24875;48.436;10.298;2023-07-13T05:18:41;1.60;;;0.80;;
39140;SDS011;24875;48.436;10.298;2023-07-13T05:21:10;3.72;;;1.92;;
39140;SDS011;24875;48.436;10.298;2023-07-13T05:23:37;5.10;;;1.63;;
39140;SDS011;24875;48.436;10.298;2023-07-13T05:26:04;5.68;;;1.27;;
39140;SDS011;24875;48.436;10.298;2023-07-13T05:28:31;6.50;;;1.73;;
39140;SDS011;24875;48.436;10.298;2023-07-13T05:30:57;6.88;;;1.33;;
39140;SDS011;24875;48.436;10.298;2023-07-13T05:33:25;1.67;;;1.00;;
39140;SDS011;24875;48.436;10.298;2023-07-13T05:35:52;2.58;;;1.38;;
39140;SDS011;24875;48.436;10.298;2023-07-13T05:38:20;3.25;;;1.20;;
39140;SDS011;24875;48.436;10.298;2023-07-13T05:40:46;1.98;;;1.38;;
39140;SDS011;24875;48.436;10.298;2023-07-13T05:43:13;4.03;;;1.05;;
39140;SDS011;24875;48.436;10.298;2023-07-13T05:45:40;1.88;;;1.20;;
39140;SDS011;24875;48.436;10.298;2023-07-13T05:48:07;3.40;;;1.83;;
39140;SDS011;24875;48.436;10.298;2023-07-13T05:50:34;3.72;;;1.60;;
39140;SDS011;24875;48.436;10.298;2023-07-13T05:53:00;4.70;;;1.50;;
39140;SDS011;24875;48.436;10.298;2023-07-13T05:55:28;4.03;;;2.25;;
39140;SDS011;24875;48.436;10.298;2023-07-13T05:57:55;2.05;;;1.00;;
39140;SDS011;24875;48.436;10.298;2023-07-13T06:00:23;4.97;;;1.50;;
39140;SDS011;24875;48.436;10.298;2023-07-13T06:02:49;3.40;;;1.05;;
39140;SDS011;24875;48.436;10.298;2023-07-13T06:05:16;4.10;;;1.48;;
39140;SDS011;24875;48.436;10.298;2023-07-13T06:07:43;4.95;;;1.60;;
39140;SDS011;24875;48.436;10.298;2023-07-13T06:10:09;1.85;;;1.17;;
39140;SDS011;24875;48.436;10.298;2023-07-13T06:12:37;1.67;;;1.05;;
39140;SDS011;24875;48.436;10.298;2023-07-13T06:15:04;1.80;;;1.08;;
39140;SDS011;24875;48.436;10.298;2023-07-13T06:17:32;2.67;;;1.23;;
39140;SDS011;24875;48.436;10.298;2023-07-13T06:19:58;1.48;;;0.90;;
39140;SDS011;24875;48.436;10.298;2023-07-13T06:22:25;1.63;;;0.68;;
39140;SDS011;24875;48.436;10.298;2023-07-13T06:24:51;2.45;;;0.82;;
39140;SDS011;24875;48.436;10.298;2023-07-13T06:27:18;3.15;;;1.20;;
39140;SDS011;24875;48.436;10.298;2023-07-13T06:29:46;3.63;;;1.05;;
39140;SDS011;24875;48.436;10.298;2023-07-13T06:32:12;2.33;;;1.23;;
39140;SDS011;24875;48.436;10.298;2023-07-13T06:34:39;1.08;;;0.90;;
39140;SDS011;24875;48.436;10.298;2023-07-13T06:37:06;1.52;;;0.90;;
39140;SDS011;24875;48.436;10.298;2023-07-13T06:39:32;1.85;;;1.00;;
39140;SDS011;24875;48.436;10.298;2023-07-13T06:41:59;0.57;;;0.57;;
39140;SDS011;24875;48.436;10.298;2023-07-13T06:44:25;1.20;;;1.05;;
39140;SDS011;24875;48.436;10.298;2023-07-13T06:46:53;4.05;;;1.38;;
39140;SDS011;24875;48.436;10.298;2023-07-13T06:49:20;1.92;;;1.10;;
39140;SDS011;24875;48.436;10.298;2023-07-13T06:51:46;1.58;;;0.90;;
39140;SDS011;24875;48.436;10.298;2023-07-13T06:54:13;1.73;;;0.82;;
39140;SDS011;24875;48.436;10.298;2023-07-13T06:56:39;1.33;;;1.02;;
39140;SDS011;24875;48.436;10.298;2023-07-13T06:59:06;5.03;;;0.95;;
39140;SDS011;24875;48.436;10.298;2023-07-13T07:01:32;1.48;;;0.80;;
39140;SDS011;24875;48.436;10.298;2023-07-13T07:04:00;1.15;;;0.75;;
39140;SDS011;24875;48.436;10.298;2023-07-13T07:06:27;1.25;;;1.10;;
39140;SDS011;24875;48.436;10.298;2023-07-13T07:08:53;4.75;;;0.90;;
39140;SDS011;24875;48.436;10.298;2023-07-13T07:11:20;1.98;;;1.05;;
39140;SDS011;24875;48.436;10.298;2023-07-13T07:13:49;1.27;;;0.80;;
39140;SDS011;24875;48.436;10.298;2023-07-13T07:16:16;0.93;;;0.70;;
39140;SDS011;24875;48.436;10.298;2023-07-13T07:18:42;1.50;;;0.82;;
39140;SDS011;24875;48.436;10.298;2023-07-13T07:21:10;5.05;;;0.93;;
39140;SDS011;24875;48.436;10.298;2023-07-13T07:23:37;1.25;;;0.77;;
39140;SDS011;24875;48.436;10.298;2023-07-13T07:26:03;1.25;;;0.88;;
39140;SDS011;24875;48.436;10.298;2023-07-13T07:28:30;1.08;;;0.80;;
39140;SDS011;24875;48.436;10.298;2023-07-13T07:30:57;5.30;;;1.00;;
39140;SDS011;24875;48.436;10.298;2023-07-13T07:33:24;0.85;;;0.68;;
39140;SDS011;24875;48.436;10.298;2023-07-13T07:35:51;1.35;;;1.00;;
39140;SDS011;24875;48.436;10.298;2023-07-13T07:38:19;1.27;;;0.75;;
39140;SDS011;24875;48.436;10.298;2023-07-13T07:40:46;1.08;;;0.98;;
39140;SDS011;24875;48.436;10.298;2023-07-13T07:43:13;2.75;;;0.90;;
39140;SDS011;24875;48.436;10.298;2023-07-13T07:45:39;1.27;;;0.80;;
39140;SDS011;24875;48.436;10.298;2023-07-13T07:48:06;1.45;;;1.02;;
39140;SDS011;24875;48.436;10.298;2023-07-13T07:50:34;1.50;;;0.77;;
39140;SDS011;24875;48.436;10.298;2023-07-13T07:53:01;1.02;;;0.82;;
39140;SDS011;24875;48.436;10.298;2023-07-13T07:55:29;1.55;;;1.10;;
39140;SDS011;24875;48.436;10.298;2023-07-13T07:57:58;3.08;;;0.90;;
39140;SDS011;24875;48.436;10.298;2023-07-13T08:00:25;1.20;;;0.90;;
39140;SDS011;24875;48.436;10.298;2023-07-13T08:02:51;2.05;;;0.70;;
39140;SDS011;24875;48.436;10.298;2023-07-13T08:05:18;1.33;;;0.82;;
39140;SDS011;24875;48.436;10.298;2023-07-13T08:07:45;1.10;;;0.80;;
39140;SDS011;24875;48.436;10.298;2023-07-13T08:10:11;0.85;;;0.70;;
39140;SDS011;24875;48.436;10.298;2023-07-13T08:12:39;4.80;;;0.80;;
39140;SDS011;24875;48.436;10.298;2023-07-13T08:15:10;2.10;;;0.98;;
39140;SDS011;24875;48.436;10.298;2023-07-13T08:17:38;1.05;;;0.73;;
39140;SDS011;24875;48.436;10.298;2023-07-13T08:20:05;0.95;;;0.65;;
39140;SDS011;24875;48.436;10.298;2023-07-13T08:22:32;1.52;;;0.88;;
39140;SDS011;24875;48.436;10.298;2023-07-13T08:24:58;1.35;;;1.00;;
39140;SDS011;24875;48.436;10.298;2023-07-13T08:27:26;1.42;;;0.95;;
39140;SDS011;24875;48.436;10.298;2023-07-13T08:29:55;1.52;;;1.13;;
39140;SDS011;24875;48.436;10.298;2023-07-13T08:32:22;1.90;;;0.75;;
39140;SDS011;24875;48.436;10.298;2023-07-13T08:34:49;0.77;;;0.70;;
39140;SDS011;24875;48.436;10.298;2023-07-13T08:37:16;0.88;;;0.70;;
39140;SDS011;24875;48.436;10.298;2023-07-13T08:39:43;3.28;;;1.08;;
39140;SDS011;24875;48.436;10.298;2023-07-13T08:42:11;0.70;;;0.70;;
39140;SDS011;24875;48.436;10.298;2023-07-13T08:44:53;2.53;;;0.73;;
39140;SDS011;24875;48.436;10.298;2023-07-13T08:47:30;1.48;;;1.10;;
39140;SDS011;24875;48.436;10.298;2023-07-13T08:50:00;1.40;;;0.90;;
39140;SDS011;24875;48.436;10.298;2023-07-13T08:52:30;1.30;;;0.70;;
39140;SDS011;24875;48.436;10.298;2023-07-13T08:55:02;4.80;;;1.33;;
39140;SDS011;24875;48.436;10.298;2023-07-13T08:57:37;0.70;;;0.63;;
39140;SDS011;24875;48.436;10.298;2023-07-13T09:00:09;5.15;;;1.40;;
39140;SDS011;24875;48.436;10.298;2023-07-13T09:02:39;0.77;;;0.77;;
39140;SDS011;24875;48.436;10.298;2023-07-13T09:05:12;0.82;;;0.68;;
39140;SDS011;24875;48.436;10.298;2023-07-13T09:07:46;1.40;;;0.80;;
39140;SDS011;24875;48.436;10.298;2023-07-13T09:10:28;0.63;;;0.57;;
39140;SDS011;24875;48.436;10.298;2023-07-13T09:13:01;1.10;;;0.85;;
39140;SDS011;24875;48.436;10.298;2023-07-13T09:15:39;1.40;;;1.00;;
39140;SDS011;24875;48.436;10.298;2023-07-13T09:18:08;6.03;;;0.90;;
39140;SDS011;24875;48.436;10.298;2023-07-13T09:20:38;4.80;;;0.80;;
39140;SDS011;24875;48.436;10.298;2023-07-13T09:23:12;1.48;;;1.17;;
39140;SDS011;24875;48.436;10.298;2023-07-13T09:25:42;0.82;;;0.70;;
39140;SDS011;24875;48.436;10.298;2023-07-13T09:28:12;1.73;;;1.13;;
39140;SDS011;24875;48.436;10.298;2023-07-13T09:30:46;2.72;;;1.00;;
39140;SDS011;24875;48.436;10.298;2023-07-13T09:33:18;1.50;;;0.68;;
39140;SDS011;24875;48.436;10.298;2023-07-13T09:35:45;0.93;;;0.70;;
39140;SDS011;24875;48.436;10.298;2023-07-13T09:38:12;1.67;;;1.10;;
39140;SDS011;24875;48.436;10.298;2023-07-13T09:40:42;6.50;;;1.17;;
39140;SDS011;24875;48.436;10.298;2023-07-13T09:43:15;1.80;;;1.00;;
39140;SDS011;24875;48.436;10.298;2023-07-13T09:45:45;2.15;;;0.95;;
39140;SDS011;24875;48.436;10.298;2023-07-13T09:48:13;3.50;;;0.95;;
39140;SDS011;24875;48.436;10.298;2023-07-13T09:50:42;3.60;;;1.05;;
39140;SDS011;24875;48.436;10.298;2023-07-13T09:53:13;2.97;;;1.05;;
39140;SDS011;24875;48.436;10.298;2023-07-13T09:55:40;1.23;;;1.05;;
39140;SDS011;24875;48.436;10.298;2023-07-13T09:58:10;3.53;;;0.82;;
39140;SDS011;24875;48.436;10.298;2023-07-13T10:00:38;2.10;;;1.00;;
39140;SDS011;24875;48.436;10.298;2023-07-13T10:03:13;2.28;;;1.05;;
39140;SDS011;24875;48.436;10.298;2023-07-13T10:05:43;4.00;;;1.00;;
39140;SDS011;24875;48.436;10.298;2023-07-13T10:08:21;3.15;;;1.13;;
39140;SDS011;24875;48.436;10.298;2023-07-13T10:10:54;1.73;;;0.73;;
39140;SDS011;24875;48.436;10.298;2023-07-13T10:13:25;0.52;;;0.43;;
39140;SDS011;24875;48.436;10.298;2023-07-13T10:15:55;2.42;;;0.60;;
39140;SDS011;24875;48.436;10.298;2023-07-13T10:18:24;1.08;;;0.70;;
39140;SDS011;24875;48.436;10.298;2023-07-13T10:20:53;2.42;;;0.70;;
39140;SDS011;24875;48.436;10.298;2023-07-13T10:23:27;0.77;;;0.60;;
39140;SDS011;24875;48.436;10.298;2023-07-13T10:25:58;1.75;;;0.65;;
39140;SDS011;24875;48.436;10.298;2023-07-13T10:28:27;1.38;;;0.77;;
39140;SDS011;24875;48.436;10.298;2023-07-13T10:30:56;1.30;;;0.80;;
39140;SDS011;24875;48.436;10.298;2023-07-13T10:33:27;0.88;;;0.70;;
39140;SDS011;24875;48.436;10.298;2023-07-13T10:35:54;1.27;;;0.60;;
39140;SDS011;24875;48.436;10.298;2023-07-13T10:38:38;2.03;;;0.60;;
39140;SDS011;24875;48.436;10.298;2023-07-13T10:41:07;2.33;;;0.90;;
39140;SDS011;24875;48.436;10.298;2023-07-13T10:43:39;0.80;;;0.80;;
39140;SDS011;24875;48.436;10.298;2023-07-13T10:46:10;2.53;;;0.60;;
39140;SDS011;24875;48.436;10.298;2023-07-13T10:48:41;3.85;;;0.88;;
39140;SDS011;24875;48.436;10.298;2023-07-13T10:51:10;1.10;;;0.75;;
39140;SDS011;24875;48.436;10.298;2023-07-13T10:53:40;1.92;;;0.68;;
39140;SDS011;24875;48.436;10.298;2023-07-13T10:56:15;2.20;;;0.90;;
39140;SDS011;24875;48.436;10.298;2023-07-13T10:58:48;0.70;;;0.70;;
39140;SDS011;24875;48.436;10.298;2023-07-13T11:01:38;1.10;;;0.73;;
39140;SDS011;24875;48.436;10.298;2023-07-13T11:04:10;1.98;;;0.60;;
39140;SDS011;24875;48.436;10.298;2023-07-13T11:06:47;1.33;;;0.80;;
39140;SDS011;24875;48.436;10.298;2023-07-13T11:09:32;1.60;;;0.88;;
39140;SDS011;24875;48.436;10.298;2023-07-13T11:12:09;3.42;;;0.82;;
39140;SDS011;24875;48.436;10.298;2023-07-13T11:15:04;0.90;;;0.73;;
39140;SDS011;24875;48.436;10.298;2023-07-13T11:17:35;1.98;;;1.05;;
39140;SDS011;24875;48.436;10.298;2023-07-13T11:23:07;0.90;;;0.70;;
39140;SDS011;24875;48.436;10.298;2023-07-13T11:25:44;1.10;;;0.52;;
39140;SDS011;24875;48.436;10.298;2023-07-13T11:28:21;5.40;;;0.90;;
39140;SDS011;24875;48.436;10.298;2023-07-13T11:30:50;0.60;;;0.60;;
39140;SDS011;24875;48.436;10.298;2023-07-13T11:33:28;1.23;;;0.70;;
39140;SDS011;24875;48.436;10.298;2023-07-13T11:36:12;2.85;;;0.77;;
39140;SDS011;24875;48.436;10.298;2023-07-13T11:38:41;1.08;;;0.73;;
39140;SDS011;24875;48.436;10.298;2023-07-13T11:41:13;1.35;;;0.68;;
39140;SDS011;24875;48.436;10.298;2023-07-13T11:43:41;2.67;;;0.90;;
39140;SDS011;24875;48.436;10.298;2023-07-13T11:46:12;4.85;;;0.73;;
39140;SDS011;24875;48.436;10.298;2023-07-13T11:48:40;2.42;;;0.85;;
39140;SDS011;24875;48.436;10.298;2023-07-13T11:51:09;3.22;;;0.75;;
39140;SDS011;24875;48.436;10.298;2023-07-13T11:53:48;0.60;;;0.60;;
39140;SDS011;24875;48.436;10.298;2023-07-13T11:56:16;2.15;;;0.80;;
39140;SDS011;24875;48.436;10.298;2023-07-13T11:58:43;1.65;;;0.70;;
39140;SDS011;24875;48.436;10.298;2023-07-13T12:01:15;3.15;;;0.88;;
39140;SDS011;24875;48.436;10.298;2023-07-13T12:03:45;7.53;;;0.95;;
39140;SDS011;24875;48.436;10.298;2023-07-13T12:06:21;3.03;;;1.23;;
39140;SDS011;24875;48.436;10.298;2023-07-13T12:08:55;1.30;;;0.80;;
39140;SDS011;24875;48.436;10.298;2023-07-13T12:11:22;0.60;;;0.60;;
39140;SDS011;24875;48.436;10.298;2023-07-13T12:13:49;0.77;;;0.60;;
39140;SDS011;24875;48.436;10.298;2023-07-13T12:16:17;1.88;;;0.75;;
39140;SDS011;24875;48.436;10.298;2023-07-13T12:18:52;0.80;;;0.60;;
39140;SDS011;24875;48.436;10.298;2023-07-13T12:21:22;1.05;;;0.70;;
39140;SDS011;24875;48.436;10.298;2023-07-13T12:23:54;1.27;;;0.68;;
39140;SDS011;24875;48.436;10.298;2023-07-13T12:26:20;1.17;;;0.75;;
39140;SDS011;24875;48.436;10.298;2023-07-13T12:28:48;1.27;;;0.60;;
39140;SDS011;24875;48.436;10.298;2023-07-13T12:31:23;3.33;;;1.10;;
39140;SDS011;24875;48.436;10.298;2023-07-13T12:33:56;2.17;;;0.90;;
39140;SDS011;24875;48.436;10.298;2023-07-13T12:36:25;2.70;;;0.82;;
39140;SDS011;24875;48.436;10.298;2023-07-13T12:38:54;0.90;;;0.68;;
39140;SDS011;24875;48.436;10.298;2023-07-13T12:41:21;0.63;;;0.63;;
39140;SDS011;24875;48.436;10.298;2023-07-13T12:43:48;2.55;;;0.90;;
39140;SDS011;24875;48.436;10.298;2023-07-13T12:46:16;5.00;;;0.93;;
39140;SDS011;24875;48.436;10.298;2023-07-13T12:48:47;0.80;;;0.73;;
39140;SDS011;24875;48.436;10.298;2023-07-13T12:51:16;1.35;;;0.80;;
39140;SDS011;24875;48.436;10.298;2023-07-13T12:53:47;0.77;;;0.70;;
39140;SDS011;24875;48.436;10.298;2023-07-13T12:56:18;2.20;;;1.27;;
39140;SDS011;24875;48.436;10.298;2023-07-13T12:58:49;2.20;;;0.82;;
39140;SDS011;24875;48.436;10.298;2023-07-13T13:01:19;0.60;;;0.60;;
39140;SDS011;24875;48.436;10.298;2023-07-13T13:03:49;5.68;;;0.95;;
39140;SDS011;24875;48.436;10.298;2023-07-13T13:06:21;2.50;;;0.60;;
39140;SDS011;24875;48.436;10.298;2023-07-13T13:08:52;1.23;;;0.77;;
39140;SDS011;24875;48.436;10.298;2023-07-13T13:11:21;2.00;;;0.80;;
39140;SDS011;24875;48.436;10.298;2023-07-13T13:13:49;1.20;;;0.75;;
39140;SDS011;24875;48.436;10.298;2023-07-13T13:16:18;1.40;;;0.60;;
39140;SDS011;24875;48.436;10.298;2023-07-13T13:18:48;3.95;;;1.50;;
39140;SDS011;24875;48.436;10.298;2023-07-13T13:21:16;0.50;;;0.50;;
39140;SDS011;24875;48.436;10.298;2023-07-13T13:23:44;2.30;;;0.60;;
39140;SDS011;24875;48.436;10.298;2023-07-13T13:26:12;1.33;;;0.63;;
39140;SDS011;24875;48.436;10.298;2023-07-13T13:28:40;0.85;;;0.60;;
39140;SDS011;24875;48.436;10.298;2023-07-13T13:31:09;3.33;;;1.00;;
39140;SDS011;24875;48.436;10.298;2023-07-13T13:33:38;1.23;;;0.80;;
39140;SDS011;24875;48.436;10.298;2023-07-13T13:36:08;2.72;;;1.40;;
39140;SDS011;24875;48.436;10.298;2023-07-13T13:38:40;0.45;;;0.40;;
39140;SDS011;24875;48.436;10.298;2023-07-13T13:41:09;3.40;;;1.10;;
39140;SDS011;24875;48.436;10.298;2023-07-13T13:43:37;2.92;;;0.95;;
39140;SDS011;24875;48.436;10.298;2023-07-13T13:46:05;1.48;;;0.70;;
39140;SDS011;24875;48.436;10.298;2023-07-13T13:48:40;1.77;;;0.80;;
39140;SDS011;24875;48.436;10.298;2023-07-13T13:51:11;1.80;;;0.70;;
39140;SDS011;24875;48.436;10.298;2023-07-13T13:53:41;1.17;;;0.73;;
39140;SDS011;24875;48.436;10.298;2023-07-13T13:56:07;2.50;;;0.75;;
39140;SDS011;24875;48.436;10.298;2023-07-13T13:58:34;0.77;;;0.57;;
39140;SDS011;24875;48.436;10.298;2023-07-13T14:01:02;1.33;;;0.70;;
39140;SDS011;24875;48.436;10.298;2023-07-13T14:03:31;4.35;;;0.77;;
39140;SDS011;24875;48.436;10.298;2023-07-13T14:05:57;1.23;;;0.60;;
39140;SDS011;24875;48.436;10.298;2023-07-13T14:08:24;3.22;;;0.70;;
39140;SDS011;24875;48.436;10.298;2023-07-13T14:10:51;0.60;;;0.60;;
39140;SDS011;24875;48.436;10.298;2023-07-13T14:13:22;0.90;;;0.68;;
39140;SDS011;24875;48.436;10.298;2023-07-13T14:15:53;0.63;;;0.52;;
39140;SDS011;24875;48.436;10.298;2023-07-13T14:18:21;0.82;;;0.52;;
39140;SDS011;24875;48.436;10.298;2023-07-13T14:20:49;1.67;;;0.70;;
39140;SDS011;24875;48.436;10.298;2023-07-13T14:23:17;0.60;;;0.60;;
39140;SDS011;24875;48.436;10.298;2023-07-13T14:25:44;0.38;;;0.38;;
39140;SDS011;24875;48.436;10.298;2023-07-13T14:28:15;1.08;;;0.60;;
39140;SDS011;24875;48.436;10.298;2023-07-13T14:30:46;0.95;;;0.57;;
39140;SDS011;24875;48.436;10.298;2023-07-13T14:33:13;1.27;;;0.85;;
39140;SDS011;24875;48.436;10.298;2023-07-13T14:35:41;3.67;;;1.00;;
39140;SDS011;24875;48.436;10.298;2023-07-13T14:38:08;1.17;;;0.80;;
39140;SDS011;24875;48.436;10.298;2023-07-13T14:40:37;1.52;;;0.95;;
39140;SDS011;24875;48.436;10.298;2023-07-13T14:43:04;2.15;;;0.60;;
39140;SDS011;24875;48.436;10.298;2023-07-13T14:45:33;2.25;;;0.90;;
39140;SDS011;24875;48.436;10.298;2023-07-13T14:48:10;3.22;;;1.13;;